PWSweather.com
Personal Weather Stations
Station Observations
SHAHALMS1
Eftra, Falkenberg, HA

EftraFalkenberg, HA

Lat: 56.85, Lon: 12.65

Elevation: 140

Station Type:

http://hem.passagen.se/risarp101

High Low Average
Temperature 75.6°F24.2°C 63.1°F17.3°C 68.1°F20.1°C
Dew Point 63.8°F17.7°C 56.3°F13.5°C 60.9°F16.1°C
Winds 7.8 mph 12.6 kmh Calm Calm 4.0 mph SSW6.4 kmh SSW
Wind Gusts 21.1 mph34.0 kmh -- 11.0 mph17.7 kmh
Humidity 89% 66% 78%
Pressure 29.86 in1011.2 mb 29.59 in1002.0 mb -
Precipitation 0.00 in0.0 mm - -
Hour Temp Dew Point Humidity Winds Wind Gusts Pressure Precip Precip Rate Daily Precip Total
12:00 AM 63.3°F17.4°C 56.3°F13.5°C 78% 7.2 mph S11.6 kmh S 19.3 mph31.1 kmh 29.83 in1010.2 mb 0.00 in0.0 mm 0.00 in0.0 mm 0.00 in0.0 mm
12:15 AM 63.3°F17.4°C 56.3°F13.5°C 78% 7.8 mph S12.6 kmh S 21.1 mph34.0 kmh 29.86 in1011.2 mb 0.00 in0.0 mm 0.00 in0.0 mm 0.00 in0.0 mm
12:30 AM 63.3°F17.4°C 56.3°F13.5°C 78% 7.0 mph S11.3 kmh S 16.1 mph25.9 kmh 29.86 in1011.2 mb 0.00 in0.0 mm 0.00 in0.0 mm 0.00 in0.0 mm
12:45 AM 63.1°F17.3°C 56.5°F13.6°C 79% 5.6 mph S9.0 kmh S 15.7 mph25.3 kmh 29.86 in1011.2 mb 0.00 in0.0 mm 0.00 in0.0 mm 0.00 in0.0 mm
01:00 AM 63.1°F17.3°C 56.9°F13.8°C 80% 6.1 mph S9.8 kmh S 13.6 mph21.9 kmh 29.86 in1011.2 mb 0.00 in0.0 mm 0.00 in0.0 mm 0.00 in0.0 mm
01:15 AM 63.1°F17.3°C 57.2°F14.0°C 81% 6.5 mph S10.5 kmh S 15.7 mph25.3 kmh 29.86 in1011.2 mb 0.00 in0.0 mm 0.00 in0.0 mm 0.00 in0.0 mm
01:30 AM 63.1°F17.3°C 57.6°F14.2°C 82% 5.4 mph S8.7 kmh S 11.5 mph18.5 kmh 29.86 in1011.2 mb 0.00 in0.0 mm 0.00 in0.0 mm 0.00 in0.0 mm
01:45 AM 63.1°F17.3°C 57.9°F14.4°C 83% 5.1 mph S8.2 kmh S 11.8 mph19.0 kmh 29.86 in1011.2 mb 0.00 in0.0 mm 0.00 in0.0 mm 0.00 in0.0 mm
02:00 AM 63.3°F17.4°C 58.4°F14.7°C 84% 5.4 mph S8.7 kmh S 15.7 mph25.3 kmh 29.83 in1010.2 mb 0.00 in0.0 mm 0.00 in0.0 mm 0.00 in0.0 mm
02:15 AM 63.7°F17.6°C 58.8°F14.9°C 84% 3.7 mph S6.0 kmh S 11.5 mph18.5 kmh 29.83 in1010.2 mb 0.00 in0.0 mm 0.00 in0.0 mm 0.00 in0.0 mm
02:30 AM 63.9°F17.7°C 59.3°F15.2°C 85% 3.8 mph S6.1 kmh S 13.6 mph21.9 kmh 29.83 in1010.2 mb 0.00 in0.0 mm 0.00 in0.0 mm 0.00 in0.0 mm
02:45 AM 64.2°F17.9°C 59.6°F15.3°C 85% 5.4 mph S8.7 kmh S 12.5 mph20.1 kmh 29.83 in1010.2 mb 0.00 in0.0 mm 0.00 in0.0 mm 0.00 in0.0 mm
03:00 AM 64.6°F18.1°C 60.3°F15.7°C 86% 5.5 mph S8.9 kmh S 13.6 mph21.9 kmh 29.83 in1010.2 mb 0.00 in0.0 mm 0.00 in0.0 mm 0.00 in0.0 mm
03:15 AM 64.6°F18.1°C 60.0°F15.6°C 85% 4.8 mph S7.7 kmh S 12.2 mph19.6 kmh 29.83 in1010.2 mb 0.00 in0.0 mm 0.00 in0.0 mm 0.00 in0.0 mm
03:30 AM 64.4°F18.0°C 60.1°F15.6°C 86% 4.9 mph S7.9 kmh S 10.7 mph17.2 kmh 29.83 in1010.2 mb 0.00 in0.0 mm 0.00 in0.0 mm 0.00 in0.0 mm
03:45 AM 64.2°F17.9°C 59.9°F15.5°C 86% 6.0 mph S9.7 kmh S 15.0 mph24.1 kmh 29.83 in1010.2 mb 0.00 in0.0 mm 0.00 in0.0 mm 0.00 in0.0 mm
04:00 AM 64.0°F17.8°C 60.1°F15.6°C 87% 5.1 mph S8.2 kmh S 9.3 mph15.0 kmh 29.80 in1009.1 mb 0.00 in0.0 mm 0.00 in0.0 mm 0.00 in0.0 mm
04:15 AM 64.0°F17.8°C 60.4°F15.8°C 88% 6.0 mph S9.7 kmh S 12.2 mph19.6 kmh 29.80 in1009.1 mb 0.00 in0.0 mm 0.00 in0.0 mm 0.00 in0.0 mm
04:30 AM 63.9°F17.7°C 60.2°F15.7°C 88% 5.6 mph S9.0 kmh S 12.5 mph20.1 kmh 29.80 in1009.1 mb 0.00 in0.0 mm 0.00 in0.0 mm 0.00 in0.0 mm
04:45 AM 63.9°F17.7°C 60.6°F15.9°C 89% 4.7 mph S7.6 kmh S 11.5 mph18.5 kmh 29.80 in1009.1 mb 0.00 in0.0 mm 0.00 in0.0 mm 0.00 in0.0 mm
05:00 AM 64.2°F17.9°C 60.9°F16.1°C 89% 3.5 mph S5.6 kmh S 8.6 mph13.8 kmh 29.80 in1009.1 mb 0.00 in0.0 mm 0.00 in0.0 mm 0.00 in0.0 mm
05:15 AM 64.4°F18.0°C 61.1°F16.2°C 89% 4.5 mph S7.2 kmh S 11.5 mph18.5 kmh 29.80 in1009.1 mb 0.00 in0.0 mm 0.00 in0.0 mm 0.00 in0.0 mm
05:30 AM 64.4°F18.0°C 61.1°F16.2°C 89% 2.7 mph S4.3 kmh S 8.6 mph13.8 kmh 29.77 in1008.1 mb 0.00 in0.0 mm 0.00 in0.0 mm 0.00 in0.0 mm
05:45 AM 64.8°F18.2°C 61.4°F16.3°C 89% 2.8 mph S4.5 kmh S 8.6 mph13.8 kmh 29.80 in1009.1 mb 0.00 in0.0 mm 0.00 in0.0 mm 0.00 in0.0 mm
06:00 AM 64.9°F18.3°C 61.6°F16.4°C 89% Calm Calm -- 29.77 in1008.1 mb 0.00 in0.0 mm 0.00 in0.0 mm 0.00 in0.0 mm
06:15 AM 65.1°F18.4°C 61.8°F16.6°C 89% Calm Calm -- 29.80 in1009.1 mb 0.00 in0.0 mm 0.00 in0.0 mm 0.00 in0.0 mm
06:30 AM 65.7°F18.7°C 62.3°F16.8°C 89% 0.7 mph SSW1.1 kmh SSW 3.2 mph5.1 kmh 29.80 in1009.1 mb 0.00 in0.0 mm 0.00 in0.0 mm 0.00 in0.0 mm
06:45 AM 66.0°F18.9°C 62.7°F17.1°C 89% 1.1 mph WSW1.8 kmh WSW 5.7 mph9.2 kmh 29.77 in1008.1 mb 0.00 in0.0 mm 0.00 in0.0 mm 0.00 in0.0 mm
07:00 AM 66.6°F19.2°C 62.9°F17.2°C 88% 2.3 mph SW3.7 kmh SW 6.8 mph10.9 kmh 29.83 in1010.2 mb 0.00 in0.0 mm 0.00 in0.0 mm 0.00 in0.0 mm
07:15 AM 66.9°F19.4°C 62.9°F17.2°C 87% 2.7 mph SW4.3 kmh SW 8.9 mph14.3 kmh 29.83 in1010.2 mb 0.00 in0.0 mm 0.00 in0.0 mm 0.00 in0.0 mm
07:30 AM 67.6°F19.8°C 63.6°F17.6°C 87% 2.3 mph WSW3.7 kmh WSW 7.5 mph12.1 kmh 29.80 in1009.1 mb 0.00 in0.0 mm 0.00 in0.0 mm 0.00 in0.0 mm
07:45 AM 68.4°F20.2°C 63.7°F17.6°C 85% 3.6 mph S5.8 kmh S 10.4 mph16.7 kmh 29.80 in1009.1 mb 0.00 in0.0 mm 0.00 in0.0 mm 0.00 in0.0 mm
08:00 AM 68.9°F20.5°C 63.2°F17.3°C 82% 4.6 mph S7.4 kmh S 11.8 mph19.0 kmh 29.77 in1008.1 mb 0.00 in0.0 mm 0.00 in0.0 mm 0.00 in0.0 mm
08:15 AM 68.7°F20.4°C 62.3°F16.8°C 80% 4.4 mph S7.1 kmh S 12.5 mph20.1 kmh 29.83 in1010.2 mb 0.00 in0.0 mm 0.00 in0.0 mm 0.00 in0.0 mm
08:30 AM 68.7°F20.4°C 61.9°F16.6°C 79% 3.2 mph SSW5.1 kmh SSW 10.4 mph16.7 kmh 29.80 in1009.1 mb 0.00 in0.0 mm 0.00 in0.0 mm 0.00 in0.0 mm
08:45 AM 69.3°F20.7°C 62.5°F16.9°C 79% 4.3 mph S6.9 kmh S 10.4 mph16.7 kmh 29.80 in1009.1 mb 0.00 in0.0 mm 0.00 in0.0 mm 0.00 in0.0 mm
09:00 AM 69.4°F20.8°C 61.9°F16.6°C 77% 4.6 mph SSW7.4 kmh SSW 11.5 mph18.5 kmh 29.80 in1009.1 mb 0.00 in0.0 mm 0.00 in0.0 mm 0.00 in0.0 mm
09:15 AM 69.4°F20.8°C 61.9°F16.6°C 77% 4.0 mph S6.4 kmh S 9.7 mph15.6 kmh 29.83 in1010.2 mb 0.00 in0.0 mm 0.00 in0.0 mm 0.00 in0.0 mm
09:30 AM 69.8°F21.0°C 61.9°F16.6°C 76% 3.9 mph SSW6.3 kmh SSW 9.7 mph15.6 kmh 29.80 in1009.1 mb 0.00 in0.0 mm 0.00 in0.0 mm 0.00 in0.0 mm
09:45 AM 70.2°F21.2°C 61.9°F16.6°C 75% 5.2 mph S8.4 kmh S 10.4 mph16.7 kmh 29.80 in1009.1 mb 0.00 in0.0 mm 0.00 in0.0 mm 0.00 in0.0 mm
10:00 AM 70.7°F21.5°C 62.4°F16.9°C 75% 4.5 mph S7.2 kmh S 12.9 mph20.8 kmh 29.80 in1009.1 mb 0.00 in0.0 mm 0.00 in0.0 mm 0.00 in0.0 mm
10:15 AM 71.4°F21.9°C 63.1°F17.3°C 75% 5.4 mph SSW8.7 kmh SSW 17.5 mph28.2 kmh 29.77 in1008.1 mb 0.00 in0.0 mm 0.00 in0.0 mm 0.00 in0.0 mm
10:30 AM 72.0°F22.2°C 62.4°F16.9°C 72% 5.1 mph WSW8.2 kmh WSW 11.5 mph18.5 kmh 29.77 in1008.1 mb 0.00 in0.0 mm 0.00 in0.0 mm 0.00 in0.0 mm
10:45 AM 71.6°F22.0°C 62.1°F16.7°C 72% 4.1 mph SSW6.6 kmh SSW 14.0 mph22.5 kmh 29.77 in1008.1 mb 0.00 in0.0 mm 0.00 in0.0 mm 0.00 in0.0 mm
11:00 AM 72.0°F22.2°C 62.4°F16.9°C 72% 4.6 mph SW7.4 kmh SW 10.0 mph16.1 kmh 29.77 in1008.1 mb 0.00 in0.0 mm 0.00 in0.0 mm 0.00 in0.0 mm
11:15 AM 72.0°F22.2°C 62.4°F16.9°C 72% 5.0 mph SSW8.0 kmh SSW 12.9 mph20.8 kmh 29.77 in1008.1 mb 0.00 in0.0 mm 0.00 in0.0 mm 0.00 in0.0 mm
11:30 AM 72.0°F22.2°C 62.0°F16.7°C 71% 5.7 mph SW9.2 kmh SW 11.8 mph19.0 kmh 29.77 in1008.1 mb 0.00 in0.0 mm 0.00 in0.0 mm 0.00 in0.0 mm
11:45 AM 72.0°F22.2°C 61.6°F16.4°C 70% 6.1 mph WSW9.8 kmh WSW 14.0 mph22.5 kmh 29.74 in1007.1 mb 0.00 in0.0 mm 0.00 in0.0 mm 0.00 in0.0 mm
12:00 PM 72.5°F22.5°C 62.6°F17.0°C 71% 5.2 mph SSW8.4 kmh SSW 12.9 mph20.8 kmh 29.74 in1007.1 mb 0.00 in0.0 mm 0.00 in0.0 mm 0.00 in0.0 mm
12:15 PM 72.9°F22.7°C 62.9°F17.2°C 71% 4.9 mph SW7.9 kmh SW 12.2 mph19.6 kmh 29.74 in1007.1 mb 0.00 in0.0 mm 0.00 in0.0 mm 0.00 in0.0 mm
12:30 PM 73.2°F22.9°C 62.4°F16.9°C 69% 4.4 mph WSW7.1 kmh WSW 10.4 mph16.7 kmh 29.74 in1007.1 mb 0.00 in0.0 mm 0.00 in0.0 mm 0.00 in0.0 mm
12:46 PM 73.6°F23.1°C 62.8°F17.1°C 69% 3.7 mph SW6.0 kmh SW 10.0 mph16.1 kmh 29.74 in1007.1 mb 0.00 in0.0 mm 0.00 in0.0 mm 0.00 in0.0 mm
01:00 PM 73.6°F23.1°C 62.8°F17.1°C 69% 5.3 mph WSW8.5 kmh WSW 11.5 mph18.5 kmh 29.74 in1007.1 mb 0.00 in0.0 mm 0.00 in0.0 mm 0.00 in0.0 mm
01:15 PM 73.8°F23.2°C 63.0°F17.2°C 69% 4.0 mph SSW6.4 kmh SSW 12.5 mph20.1 kmh 29.71 in1006.1 mb 0.00 in0.0 mm 0.00 in0.0 mm 0.00 in0.0 mm
01:30 PM 74.3°F23.5°C 63.1°F17.3°C 68% 3.6 mph WSW5.8 kmh WSW 9.7 mph15.6 kmh 29.71 in1006.1 mb 0.00 in0.0 mm 0.00 in0.0 mm 0.00 in0.0 mm
01:45 PM 74.3°F23.5°C 63.5°F17.5°C 69% 3.0 mph SW4.8 kmh SW 9.7 mph15.6 kmh 29.77 in1008.1 mb 0.00 in0.0 mm 0.00 in0.0 mm 0.00 in0.0 mm
02:00 PM 74.3°F23.5°C 63.1°F17.3°C 68% 4.2 mph S6.8 kmh S 10.0 mph16.1 kmh 29.74 in1007.1 mb 0.00 in0.0 mm 0.00 in0.0 mm 0.00 in0.0 mm
02:15 PM 74.7°F23.7°C 63.8°F17.7°C 69% 4.2 mph SW6.8 kmh SW 9.7 mph15.6 kmh 29.74 in1007.1 mb 0.00 in0.0 mm 0.00 in0.0 mm 0.00 in0.0 mm
02:30 PM 75.6°F24.2°C 63.8°F17.7°C 67% 3.9 mph WSW6.3 kmh WSW 10.0 mph16.1 kmh 29.71 in1006.1 mb 0.00 in0.0 mm 0.00 in0.0 mm 0.00 in0.0 mm
02:45 PM 75.0°F23.9°C 63.3°F17.4°C 67% 4.5 mph SSW7.2 kmh SSW 11.1 mph17.9 kmh 29.71 in1006.1 mb 0.00 in0.0 mm 0.00 in0.0 mm 0.00 in0.0 mm
03:00 PM 74.1°F23.4°C 62.0°F16.7°C 66% 4.4 mph WSW7.1 kmh WSW 9.3 mph15.0 kmh 29.71 in1006.1 mb 0.00 in0.0 mm 0.00 in0.0 mm 0.00 in0.0 mm
03:15 PM 74.1°F23.4°C 62.5°F16.9°C 67% 3.8 mph W6.1 kmh W 7.9 mph12.7 kmh 29.71 in1006.1 mb 0.00 in0.0 mm 0.00 in0.0 mm 0.00 in0.0 mm
03:30 PM 74.3°F23.5°C 62.6°F17.0°C 67% 4.0 mph W6.4 kmh W 8.6 mph13.8 kmh 29.71 in1006.1 mb 0.00 in0.0 mm 0.00 in0.0 mm 0.00 in0.0 mm
03:45 PM 73.6°F23.1°C 61.9°F16.6°C 67% 3.9 mph W6.3 kmh W 10.4 mph16.7 kmh 29.71 in1006.1 mb 0.00 in0.0 mm 0.00 in0.0 mm 0.00 in0.0 mm
04:00 PM 72.9°F22.7°C 61.3°F16.3°C 67% 2.2 mph W3.5 kmh W 7.9 mph12.7 kmh 29.71 in1006.1 mb 0.00 in0.0 mm 0.00 in0.0 mm 0.00 in0.0 mm
04:15 PM 71.8°F22.1°C 60.6°F15.9°C 68% 2.1 mph W3.4 kmh W 5.7 mph9.2 kmh 29.71 in1006.1 mb 0.00 in0.0 mm 0.00 in0.0 mm 0.00 in0.0 mm
04:30 PM 71.1°F21.7°C 60.8°F16.0°C 70% 3.9 mph W6.3 kmh W 10.0 mph16.1 kmh 29.71 in1006.1 mb 0.00 in0.0 mm 0.00 in0.0 mm 0.00 in0.0 mm
04:45 PM 70.5°F21.4°C 60.3°F15.7°C 70% 3.0 mph WSW4.8 kmh WSW 7.2 mph11.6 kmh 29.71 in1006.1 mb 0.00 in0.0 mm 0.00 in0.0 mm 0.00 in0.0 mm
05:00 PM 70.3°F21.3°C 60.5°F15.8°C 71% 3.2 mph SW5.1 kmh SW 8.6 mph13.8 kmh 29.71 in1006.1 mb 0.00 in0.0 mm 0.00 in0.0 mm 0.00 in0.0 mm
05:15 PM 69.6°F20.9°C 60.2°F15.7°C 72% 2.9 mph WSW4.7 kmh WSW 6.8 mph10.9 kmh 29.68 in1005.1 mb 0.00 in0.0 mm 0.00 in0.0 mm 0.00 in0.0 mm
05:30 PM 69.3°F20.7°C 60.2°F15.7°C 73% 1.7 mph SSW2.7 kmh SSW 6.4 mph10.3 kmh 29.68 in1005.1 mb 0.00 in0.0 mm 0.00 in0.0 mm 0.00 in0.0 mm
05:45 PM 68.9°F20.5°C 59.9°F15.5°C 73% 3.0 mph SSW4.8 kmh SSW 7.9 mph12.7 kmh 29.68 in1005.1 mb 0.00 in0.0 mm 0.00 in0.0 mm 0.00 in0.0 mm
06:00 PM 68.5°F20.3°C 59.9°F15.5°C 74% 2.5 mph S4.0 kmh S 5.7 mph9.2 kmh 29.68 in1005.1 mb 0.00 in0.0 mm 0.00 in0.0 mm 0.00 in0.0 mm
06:15 PM 68.4°F20.2°C 59.7°F15.4°C 74% 3.2 mph S5.1 kmh S 8.6 mph13.8 kmh 29.68 in1005.1 mb 0.00 in0.0 mm 0.00 in0.0 mm 0.00 in0.0 mm
06:30 PM 68.2°F20.1°C 59.6°F15.3°C 74% 3.5 mph S5.6 kmh S 8.6 mph13.8 kmh 29.68 in1005.1 mb 0.00 in0.0 mm 0.00 in0.0 mm 0.00 in0.0 mm
06:45 PM 68.0°F20.0°C 59.4°F15.2°C 74% 1.9 mph S3.1 kmh S 6.1 mph9.8 kmh 29.68 in1005.1 mb 0.00 in0.0 mm 0.00 in0.0 mm 0.00 in0.0 mm
07:00 PM 67.6°F19.8°C 59.4°F15.2°C 75% 2.4 mph S3.9 kmh S 10.4 mph16.7 kmh 29.68 in1005.1 mb 0.00 in0.0 mm 0.00 in0.0 mm 0.00 in0.0 mm
07:15 PM 67.1°F19.5°C 58.9°F14.9°C 75% 2.7 mph S4.3 kmh S 9.3 mph15.0 kmh 29.68 in1005.1 mb 0.00 in0.0 mm 0.00 in0.0 mm 0.00 in0.0 mm
07:30 PM 66.9°F19.4°C 59.1°F15.1°C 76% 3.2 mph S5.1 kmh S 9.3 mph15.0 kmh 29.68 in1005.1 mb 0.00 in0.0 mm 0.00 in0.0 mm 0.00 in0.0 mm
07:45 PM 66.6°F19.2°C 59.1°F15.1°C 77% 4.2 mph S6.8 kmh S 10.0 mph16.1 kmh 29.65 in1004.1 mb 0.00 in0.0 mm 0.00 in0.0 mm 0.00 in0.0 mm
08:00 PM 66.4°F19.1°C 59.3°F15.2°C 78% 4.3 mph S6.9 kmh S 11.8 mph19.0 kmh 29.65 in1004.1 mb 0.00 in0.0 mm 0.00 in0.0 mm 0.00 in0.0 mm
08:15 PM 66.2°F19.0°C 59.5°F15.3°C 79% 5.0 mph S8.0 kmh S 13.6 mph21.9 kmh 29.65 in1004.1 mb 0.00 in0.0 mm 0.00 in0.0 mm 0.00 in0.0 mm
08:30 PM 66.2°F19.0°C 59.8°F15.4°C 80% 4.5 mph S7.2 kmh S 10.4 mph16.7 kmh 29.65 in1004.1 mb 0.00 in0.0 mm 0.00 in0.0 mm 0.00 in0.0 mm
08:46 PM 66.4°F19.1°C 60.7°F15.9°C 82% 3.2 mph S5.1 kmh S 8.6 mph13.8 kmh 29.65 in1004.1 mb 0.00 in0.0 mm 0.00 in0.0 mm 0.00 in0.0 mm
09:00 PM 66.4°F19.1°C 60.7°F15.9°C 82% 3.4 mph S5.5 kmh S 7.9 mph12.7 kmh 29.65 in1004.1 mb 0.00 in0.0 mm 0.00 in0.0 mm 0.00 in0.0 mm
09:15 PM 66.0°F18.9°C 60.4°F15.8°C 82% 3.2 mph S5.1 kmh S 8.9 mph14.3 kmh 29.62 in1003.0 mb 0.00 in0.0 mm 0.00 in0.0 mm 0.00 in0.0 mm
09:30 PM 65.7°F18.7°C 60.0°F15.6°C 82% 4.0 mph S6.4 kmh S 10.0 mph16.1 kmh 29.62 in1003.0 mb 0.00 in0.0 mm 0.00 in0.0 mm 0.00 in0.0 mm
09:45 PM 65.3°F18.5°C 60.0°F15.6°C 83% 3.3 mph SSW5.3 kmh SSW 8.6 mph13.8 kmh 29.62 in1003.0 mb 0.00 in0.0 mm 0.00 in0.0 mm 0.00 in0.0 mm
10:00 PM 65.1°F18.4°C 59.8°F15.4°C 83% 5.4 mph SSW8.7 kmh SSW 13.6 mph21.9 kmh 29.62 in1003.0 mb 0.00 in0.0 mm 0.00 in0.0 mm 0.00 in0.0 mm
10:15 PM 65.1°F18.4°C 59.8°F15.4°C 83% 4.9 mph S7.9 kmh S 10.0 mph16.1 kmh 29.62 in1003.0 mb 0.00 in0.0 mm 0.00 in0.0 mm 0.00 in0.0 mm
10:30 PM 65.1°F18.4°C 59.8°F15.4°C 83% 5.0 mph S8.0 kmh S 11.8 mph19.0 kmh 29.62 in1003.0 mb 0.00 in0.0 mm 0.00 in0.0 mm 0.00 in0.0 mm
10:45 PM 65.1°F18.4°C 60.2°F15.7°C 84% 5.9 mph S9.5 kmh S 16.1 mph25.9 kmh 29.59 in1002.0 mb 0.00 in0.0 mm 0.00 in0.0 mm 0.00 in0.0 mm
11:00 PM 65.7°F18.7°C 60.7°F15.9°C 84% 6.0 mph S9.7 kmh S 16.1 mph25.9 kmh 29.62 in1003.0 mb 0.00 in0.0 mm 0.00 in0.0 mm 0.00 in0.0 mm
11:15 PM 65.8°F18.8°C 60.9°F16.1°C 84% 5.9 mph S9.5 kmh S 13.6 mph21.9 kmh 29.62 in1003.0 mb 0.00 in0.0 mm 0.00 in0.0 mm 0.00 in0.0 mm
11:30 PM 66.0°F18.9°C 61.0°F16.1°C 84% 5.2 mph S8.4 kmh S 10.4 mph16.7 kmh 29.62 in1003.0 mb 0.00 in0.0 mm 0.00 in0.0 mm 0.00 in0.0 mm
11:45 PM 66.0°F18.9°C 60.7°F15.9°C 83% 5.7 mph S9.2 kmh S 17.5 mph28.2 kmh 29.62 in1003.0 mb 0.00 in0.0 mm 0.00 in0.0 mm 0.00 in0.0 mm